Time;durP1;ratioP1;P1;durP2;ratioP2;P2;SDS_P1;SDS_P2;PMS_P1;PMS_P2;Temp;Humidity;BMP_temperature;BMP_pressure;BME280_temperature;BME280_humidity;BME280_pressure;Samples;Min_cycle;Max_cycle;Signal;HPM_P1;HPM_P2
2022/10/31 00:00:23;;;;;;;19.38;13.38;;;11.30;99.90;;;;;;5012921;28;20046;-85
2022/10/31 00:02:49;;;;;;;32.05;18.48;;;11.30;99.90;;;;;;4994399;28;20042;-84
2022/10/31 00:05:17;;;;;;;19.52;13.57;;;11.30;99.90;;;;;;4996931;28;20039;-85
2022/10/31 00:07:43;;;;;;;29.05;17.42;;;11.20;99.90;;;;;;4998756;28;20139;-85
2022/10/31 00:10:09;;;;;;;32.33;17.80;;;11.20;99.90;;;;;;5002104;28;20062;-85
2022/10/31 00:12:34;;;;;;;20.17;14.65;;;11.20;99.90;;;;;;5008314;28;20053;-84
2022/10/31 00:15:00;;;;;;;25.27;16.58;;;11.10;99.90;;;;;;5013980;28;20034;-85
2022/10/31 00:17:26;;;;;;;28.40;16.00;;;11.10;99.90;;;;;;5016512;28;20039;-85
2022/10/31 00:19:51;;;;;;;23.42;14.02;;;11.00;99.90;;;;;;4999304;28;20087;-84
2022/10/31 00:22:17;;;;;;;27.30;15.07;;;11.00;99.90;;;;;;5009004;28;20045;-84
2022/10/31 00:24:42;;;;;;;23.70;14.73;;;10.90;99.90;;;;;;4999478;28;20061;-84
2022/10/31 00:27:08;;;;;;;20.00;13.55;;;11.00;99.90;;;;;;5021555;28;20033;-84
2022/10/31 00:29:34;;;;;;;23.25;15.68;;;11.00;99.90;;;;;;5015908;28;20052;-84
2022/10/31 00:31:59;;;;;;;31.92;16.30;;;10.90;99.90;;;;;;5013958;28;20054;-84
2022/10/31 00:34:25;;;;;;;20.23;12.75;;;10.90;99.90;;;;;;5015914;28;20038;-84
2022/10/31 00:36:51;;;;;;;22.23;13.35;;;11.00;99.90;;;;;;5022522;28;20050;-84
2022/10/31 00:39:16;;;;;;;23.05;13.23;;;11.00;99.90;;;;;;5017441;28;20054;-84
2022/10/31 00:41:42;;;;;;;23.00;12.63;;;10.90;99.90;;;;;;5034666;28;20050;-84
2022/10/31 00:44:08;;;;;;;24.05;13.85;;;10.90;99.90;;;;;;4998526;28;20521;-84
2022/10/31 00:46:33;;;;;;;21.17;13.18;;;11.00;99.90;;;;;;5005945;28;20093;-84
2022/10/31 00:48:59;;;;;;;18.90;11.18;;;11.00;99.90;;;;;;5001825;28;20042;-84
2022/10/31 00:51:25;;;;;;;21.40;11.88;;;10.90;99.90;;;;;;5028621;28;20038;-84
2022/10/31 00:53:50;;;;;;;19.65;12.07;;;10.90;99.90;;;;;;5016532;28;20108;-84
2022/10/31 00:56:16;;;;;;;19.77;11.50;;;10.90;99.90;;;;;;5001701;28;20453;-84
2022/10/31 00:58:42;;;;;;;22.05;14.32;;;10.90;99.90;;;;;;4991285;28;20077;-84
2022/10/31 01:01:07;;;;;;;20.05;12.20;;;10.90;99.90;;;;;;5000346;28;20076;-85
2022/10/31 01:03:33;;;;;;;16.13;11.90;;;10.90;99.90;;;;;;5038661;28;20050;-85
2022/10/31 01:06:06;;;;;;;32.58;16.23;;;10.80;99.90;;;;;;5005876;28;20022;-85
2022/10/31 01:08:33;;;;;;;23.45;14.15;;;10.80;99.90;;;;;;5034226;28;20049;-85
2022/10/31 01:11:15;;;;;;;23.10;13.45;;;10.80;99.90;;;;;;4995525;28;20034;-85
2022/10/31 01:13:41;;;;;;;20.50;13.05;;;10.80;99.90;;;;;;5034189;28;20042;-85
2022/10/31 01:16:10;;;;;;;20.65;13.65;;;10.80;99.90;;;;;;4998936;28;20050;-84
2022/10/31 01:18:35;;;;;;;17.98;13.13;;;10.80;99.90;;;;;;5014033;28;20137;-85
2022/10/31 01:21:11;;;;;;;22.95;14.80;;;10.80;99.90;;;;;;5031550;28;20510;-85
2022/10/31 01:23:37;;;;;;;25.95;16.00;;;10.70;99.90;;;;;;5030984;28;20053;-85
2022/10/31 01:26:15;;;;;;;28.35;17.17;;;10.70;99.90;;;;;;5030658;28;20080;-85
2022/10/31 01:28:47;;;;;;;28.30;16.13;;;10.80;99.90;;;;;;5037760;28;20037;-85
2022/10/31 01:31:13;;;;;;;24.13;14.93;;;10.80;99.90;;;;;;5033025;28;20049;-84
2022/10/31 01:33:39;;;;;;;26.15;16.27;;;10.80;99.90;;;;;;5029534;28;20030;-84
2022/10/31 01:36:23;;;;;;;32.90;18.80;;;10.80;99.90;;;;;;5035953;28;20133;-84
2022/10/31 01:38:49;;;;;;;31.55;19.58;;;10.90;99.90;;;;;;5005187;28;20057;-85
2022/10/31 01:41:18;;;;;;;25.45;16.23;;;10.80;99.90;;;;;;4988258;28;20042;-85
2022/10/31 01:43:47;;;;;;;25.50;16.08;;;10.90;99.90;;;;;;4998696;28;20098;-84
2022/10/31 01:46:15;;;;;;;22.00;15.73;;;10.80;99.90;;;;;;4983089;28;20433;-84
2022/10/31 01:48:41;;;;;;;26.02;16.17;;;10.80;99.90;;;;;;4997543;28;20058;-84
2022/10/31 01:51:08;;;;;;;17.83;14.32;;;10.80;99.90;;;;;;4987761;28;20041;-84
2022/10/31 01:53:35;;;;;;;23.27;16.23;;;10.70;99.90;;;;;;5000694;28;20169;-84
2022/10/31 01:56:01;;;;;;;24.33;16.17;;;10.70;99.90;;;;;;4977960;28;20042;-84
2022/10/31 01:58:30;;;;;;;19.90;13.52;;;10.70;99.90;;;;;;5010264;28;20077;-84
2022/10/31 02:00:59;;;;;;;23.42;14.75;;;10.60;99.90;;;;;;5000879;28;20069;-87
2022/10/31 02:03:26;;;;;;;21.48;15.13;;;10.60;99.90;;;;;;4976346;28;21026;-87
2022/10/31 02:05:55;;;;;;;23.08;15.07;;;10.50;99.90;;;;;;4989972;28;20074;-87
2022/10/31 02:08:32;;;;;;;19.10;15.13;;;10.50;99.90;;;;;;5001228;28;20038;-87
2022/10/31 02:11:00;;;;;;;28.38;17.33;;;10.50;99.90;;;;;;4993846;28;20585;-87
2022/10/31 02:13:27;;;;;;;23.25;15.45;;;10.50;99.90;;;;;;4973082;28;20586;-87
2022/10/31 02:15:56;;;;;;;22.45;14.90;;;10.50;99.90;;;;;;4998859;28;20038;-87
2022/10/31 02:18:23;;;;;;;24.05;15.27;;;10.50;99.90;;;;;;4993107;28;20069;-87
2022/10/31 02:20:58;;;;;;;21.17;14.13;;;10.40;99.90;;;;;;4991957;28;20042;-87
2022/10/31 02:23:58;;;;;;;26.88;15.98;;;10.40;99.90;;;;;;4985380;28;20501;-87
2022/10/31 02:26:51;;;;;;;23.52;14.90;;;10.40;99.90;;;;;;4987685;28;20041;-87
2022/10/31 02:29:52;;;;;;;19.60;14.50;;;10.40;99.90;;;;;;4985974;28;20045;-87
2022/10/31 02:32:33;;;;;;;24.73;15.32;;;10.30;99.90;;;;;;4991804;28;20481;-87
2022/10/31 02:35:26;;;;;;;17.48;13.48;;;10.30;99.90;;;;;;4994872;28;20034;-86
2022/10/31 02:38:25;;;;;;;22.88;14.98;;;10.30;99.90;;;;;;4991313;28;20050;-88
2022/10/31 02:41:20;;;;;;;20.25;13.43;;;10.20;99.90;;;;;;4992859;28;20073;-87
2022/10/31 02:44:00;;;;;;;22.20;13.75;;;10.20;99.90;;;;;;4983919;28;20066;-87
2022/10/31 02:46:47;;;;;;;24.58;14.63;;;10.10;99.90;;;;;;4988821;28;20041;-87
2022/10/31 02:49:43;;;;;;;20.92;13.65;;;10.10;99.90;;;;;;4994212;28;20037;-87
2022/10/31 02:52:26;;;;;;;19.98;13.10;;;10.20;99.90;;;;;;4988413;28;20034;-86
2022/10/31 02:54:52;;;;;;;18.10;12.95;;;10.20;99.90;;;;;;4984804;28;20062;-88
2022/10/31 02:57:28;;;;;;;19.92;13.02;;;10.10;99.90;;;;;;4995497;28;20038;-87
2022/10/31 02:59:58;;;;;;;18.98;14.45;;;10.10;99.90;;;;;;5000781;28;20131;-87
2022/10/31 03:02:45;;;;;;;19.98;12.20;;;10.10;99.90;;;;;;5000546;28;20104;-86
2022/10/31 03:05:36;;;;;;;21.65;13.52;;;10.10;99.90;;;;;;4989296;28;20045;-87
2022/10/31 03:08:13;;;;;;;16.90;12.75;;;10.10;99.90;;;;;;4987737;28;20541;-87
2022/10/31 03:10:47;;;;;;;18.65;11.45;;;10.00;99.90;;;;;;4994794;28;20512;-87
2022/10/31 03:13:26;;;;;;;19.48;12.45;;;10.00;99.90;;;;;;4985583;28;20121;-87
2022/10/31 03:16:02;;;;;;;25.70;14.73;;;9.90;99.90;;;;;;5013506;28;20044;-87
2022/10/31 03:18:31;;;;;;;17.70;12.38;;;9.90;99.90;;;;;;4975067;28;20684;-86
2022/10/31 03:21:21;;;;;;;19.90;12.32;;;9.80;99.90;;;;;;4986289;28;20108;-86
2022/10/31 03:23:50;;;;;;;19.35;12.27;;;9.80;99.90;;;;;;4974672;28;20044;-87
2022/10/31 03:26:16;;;;;;;19.52;13.38;;;9.70;99.90;;;;;;4975306;28;20038;-87
2022/10/31 03:28:49;;;;;;;19.40;12.80;;;9.70;99.90;;;;;;4992020;28;20099;-87
2022/10/31 03:31:18;;;;;;;15.63;12.38;;;9.70;99.90;;;;;;4986500;28;20046;-87
2022/10/31 03:33:45;;;;;;;18.90;12.80;;;9.60;99.90;;;;;;4988933;28;20070;-88
2022/10/31 03:36:14;;;;;;;17.38;12.75;;;9.60;99.90;;;;;;4986262;28;20034;-87
2022/10/31 03:38:42;;;;;;;19.02;13.07;;;9.60;99.90;;;;;;4978878;28;20104;-87
2022/10/31 03:41:12;;;;;;;19.25;12.07;;;9.50;99.90;;;;;;4967593;28;20050;-87
2022/10/31 03:43:43;;;;;;;14.95;11.77;;;9.50;99.90;;;;;;4988883;28;20026;-87
2022/10/31 03:46:09;;;;;;;20.30;11.40;;;9.40;99.90;;;;;;4990074;28;20042;-87
2022/10/31 03:48:35;;;;;;;23.65;13.98;;;9.40;99.90;;;;;;4989542;28;20049;-87
2022/10/31 03:51:27;;;;;;;15.85;11.77;;;9.40;99.90;;;;;;5008815;28;20533;-87
2022/10/31 03:54:04;;;;;;;24.77;15.18;;;9.40;99.90;;;;;;4969090;28;20089;-87
2022/10/31 03:56:36;;;;;;;22.35;14.55;;;9.30;99.90;;;;;;4991198;28;20054;-84
2022/10/31 03:59:10;;;;;;;27.63;14.95;;;9.30;99.90;;;;;;4994118;28;20042;-84
2022/10/31 04:01:41;;;;;;;21.00;12.73;;;9.30;99.90;;;;;;4991187;28;20073;-83
2022/10/31 04:04:07;;;;;;;24.65;15.30;;;9.20;99.90;;;;;;4999264;28;20446;-84
2022/10/31 04:06:35;;;;;;;18.95;13.18;;;9.20;99.90;;;;;;4995278;28;20482;-86
2022/10/31 04:09:05;;;;;;;23.20;13.55;;;9.20;99.90;;;;;;4993526;28;20042;-86
2022/10/31 04:11:34;;;;;;;22.77;14.13;;;9.20;99.90;;;;;;4989837;28;20505;-87
2022/10/31 04:14:03;;;;;;;17.65;13.68;;;9.10;99.90;;;;;;4992285;28;20039;-86
2022/10/31 04:16:29;;;;;;;20.65;13.45;;;9.10;99.90;;;;;;5011488;28;20052;-86
2022/10/31 04:18:55;;;;;;;19.63;13.25;;;9.00;99.90;;;;;;4992885;28;20034;-86
2022/10/31 04:21:28;;;;;;;20.55;13.60;;;9.00;99.90;;;;;;5012360;28;20060;-86
2022/10/31 04:23:54;;;;;;;18.00;12.90;;;9.00;99.90;;;;;;4990833;28;20044;-87
2022/10/31 04:26:19;;;;;;;26.00;16.27;;;8.90;99.90;;;;;;4993641;28;20050;-86
2022/10/31 04:28:45;;;;;;;27.33;14.63;;;8.90;99.90;;;;;;4990222;28;20038;-86
2022/10/31 04:31:12;;;;;;;16.95;13.63;;;8.90;99.90;;;;;;4992626;28;20057;-86
2022/10/31 04:33:37;;;;;;;21.27;13.00;;;8.90;99.90;;;;;;5025955;28;20478;-86
2022/10/31 04:36:04;;;;;;;19.00;15.23;;;8.80;99.90;;;;;;5005657;28;20049;-86
2022/10/31 04:38:30;;;;;;;23.70;13.73;;;8.80;99.90;;;;;;4993794;28;20457;-87
2022/10/31 04:40:56;;;;;;;19.23;14.13;;;8.80;99.90;;;;;;4994238;28;20049;-87
2022/10/31 04:43:22;;;;;;;21.85;14.65;;;8.80;99.90;;;;;;4987229;28;20050;-87
2022/10/31 04:45:47;;;;;;;14.93;13.00;;;8.70;99.90;;;;;;5009282;28;20053;-87
2022/10/31 04:48:13;;;;;;;22.05;13.52;;;8.60;99.90;;;;;;4982499;28;20033;-86
2022/10/31 04:50:39;;;;;;;18.05;13.77;;;8.60;99.90;;;;;;4994289;28;20061;-86
2022/10/31 04:53:05;;;;;;;22.15;15.65;;;8.70;99.90;;;;;;4988804;28;20124;-86
2022/10/31 04:55:30;;;;;;;20.73;13.32;;;8.60;99.90;;;;;;4993419;28;20177;-86
2022/10/31 04:57:56;;;;;;;16.85;13.20;;;8.60;99.90;;;;;;4977958;28;20054;-86
2022/10/31 05:00:22;;;;;;;24.33;14.98;;;8.70;99.90;;;;;;4987388;28;20543;-86
2022/10/31 05:02:53;;;;;;;23.63;15.70;;;8.60;99.90;;;;;;4979578;28;20042;-86
2022/10/31 05:05:23;;;;;;;17.70;13.30;;;8.60;99.90;;;;;;5013610;28;20058;-86
2022/10/31 05:07:49;;;;;;;18.90;14.40;;;8.50;99.90;;;;;;4982831;28;20045;-86
2022/10/31 05:10:18;;;;;;;20.42;13.77;;;8.50;99.90;;;;;;4990364;28;20041;-86
2022/10/31 05:12:48;;;;;;;16.77;12.82;;;8.50;99.90;;;;;;4977042;28;20628;-86
2022/10/31 05:15:14;;;;;;;14.80;12.55;;;8.50;99.90;;;;;;5005088;28;20516;-86
2022/10/31 05:17:40;;;;;;;14.88;11.90;;;8.40;99.90;;;;;;4981593;28;20610;-87
2022/10/31 05:20:06;;;;;;;18.13;13.90;;;8.40;99.90;;;;;;4990633;28;20038;-86
2022/10/31 05:22:32;;;;;;;29.17;17.05;;;8.40;99.90;;;;;;4987982;28;20477;-86
2022/10/31 05:24:59;;;;;;;17.67;12.60;;;8.40;99.90;;;;;;4992582;28;20040;-86
2022/10/31 05:27:25;;;;;;;16.98;12.63;;;8.40;99.90;;;;;;4991926;28;20050;-85
2022/10/31 05:29:51;;;;;;;14.05;12.23;;;8.40;99.90;;;;;;4994829;28;20094;-86
2022/10/31 05:32:16;;;;;;;23.88;14.00;;;8.40;99.90;;;;;;5010018;28;20054;-86
2022/10/31 05:34:42;;;;;;;20.30;15.50;;;8.30;99.90;;;;;;4990903;28;20054;-86
2022/10/31 05:37:08;;;;;;;19.40;14.07;;;8.30;99.90;;;;;;5008277;28;20038;-86
2022/10/31 05:39:33;;;;;;;18.27;13.57;;;8.30;99.90;;;;;;5004398;28;20094;-86
2022/10/31 05:41:59;;;;;;;28.63;18.05;;;8.30;99.90;;;;;;4990009;28;20034;-86
2022/10/31 05:44:25;;;;;;;17.88;14.40;;;8.30;99.90;;;;;;4992073;28;20136;-86
2022/10/31 05:46:50;;;;;;;22.92;13.68;;;8.20;99.90;;;;;;5005136;28;20120;-85
2022/10/31 05:49:17;;;;;;;15.70;12.45;;;8.20;99.90;;;;;;4985155;28;20069;-86
2022/10/31 05:51:43;;;;;;;14.77;11.88;;;8.20;99.90;;;;;;4991215;28;20038;-85
2022/10/31 05:54:08;;;;;;;14.90;11.70;;;8.20;99.90;;;;;;4988433;28;20613;-85
2022/10/31 05:56:34;;;;;;;25.35;13.35;;;8.20;99.90;;;;;;5005828;28;20041;-86
2022/10/31 05:59:00;;;;;;;16.15;11.98;;;8.20;99.90;;;;;;4989590;28;20045;-86
2022/10/31 06:01:25;;;;;;;27.08;14.52;;;8.10;99.90;;;;;;4993889;28;20034;-85
2022/10/31 06:03:51;;;;;;;15.50;11.43;;;8.10;99.90;;;;;;4971896;28;20082;-85
2022/10/31 06:06:16;;;;;;;17.63;11.18;;;8.10;99.90;;;;;;4994531;28;20127;-86
2022/10/31 06:08:42;;;;;;;19.33;11.93;;;8.20;99.90;;;;;;4989823;28;20442;-85
2022/10/31 06:11:08;;;;;;;17.20;10.50;;;8.20;99.90;;;;;;4985071;28;20667;-86
2022/10/31 06:13:34;;;;;;;15.70;11.63;;;8.20;99.90;;;;;;5002923;28;20104;-86
2022/10/31 06:15:59;;;;;;;16.20;10.45;;;8.20;99.90;;;;;;4985261;28;20050;-86
2022/10/31 06:18:25;;;;;;;14.57;10.05;;;8.20;99.90;;;;;;4984422;28;20509;-86
2022/10/31 06:20:51;;;;;;;17.27;10.32;;;8.10;99.90;;;;;;5000568;28;20062;-85
2022/10/31 06:23:16;;;;;;;26.30;12.15;;;8.10;99.90;;;;;;4986893;28;20049;-85
2022/10/31 06:25:42;;;;;;;27.25;12.70;;;8.00;99.90;;;;;;4986420;28;20518;-86
2022/10/31 06:28:08;;;;;;;14.32;9.60;;;8.00;99.90;;;;;;5000157;28;20042;-86
2022/10/31 06:30:33;;;;;;;15.80;9.10;;;8.10;99.90;;;;;;5002544;28;20582;-86
2022/10/31 06:33:06;;;;;;;12.40;9.25;;;8.10;99.90;;;;;;4990219;28;20038;-86
2022/10/31 06:35:32;;;;;;;28.02;12.52;;;8.10;99.90;;;;;;5003675;28;20045;-85
2022/10/31 06:37:57;;;;;;;17.13;11.20;;;8.10;99.90;;;;;;5001994;28;20085;-86
2022/10/31 06:40:23;;;;;;;49.90;15.02;;;8.10;99.90;;;;;;5000326;28;20144;-86
2022/10/31 06:43:01;;;;;;;111.43;20.25;;;8.10;99.90;;;;;;5005126;28;20045;-86
2022/10/31 06:45:27;;;;;;;35.22;13.23;;;8.10;99.90;;;;;;4985721;28;20481;-85
2022/10/31 06:47:54;;;;;;;18.92;10.93;;;8.10;99.90;;;;;;4981245;28;20049;-85
2022/10/31 06:50:21;;;;;;;71.72;12.45;;;8.20;99.90;;;;;;4986021;28;20045;-85
2022/10/31 06:52:54;;;;;;;104.28;19.98;;;8.10;99.90;;;;;;4985157;28;20049;-86
2022/10/31 06:55:22;;;;;;;177.85;25.00;;;8.20;99.90;;;;;;4991828;28;20478;-86
2022/10/31 06:57:55;;;;;;;214.77;29.83;;;8.20;99.90;;;;;;4969330;28;20136;-85
2022/10/31 07:00:21;;;;;;;52.67;13.65;;;8.10;99.90;;;;;;5002015;28;20041;-85
2022/10/31 07:03:05;;;;;;;18.55;12.02;;;8.20;99.90;;;;;;4984376;28;20795;-85
2022/10/31 07:05:31;;;;;;;291.67;43.28;;;8.20;99.90;;;;;;5006404;28;20058;-86
2022/10/31 07:07:59;;;;;;;101.35;18.77;;;8.20;99.90;;;;;;4984334;28;20105;-85
2022/10/31 07:10:26;;;;;;;207.57;33.85;;;8.20;99.90;;;;;;4986945;28;20053;-84
2022/10/31 07:13:01;;;;;;;158.15;28.55;;;8.10;99.90;;;;;;4981527;28;20049;-85
2022/10/31 07:15:28;;;;;;;97.22;20.50;;;8.20;99.90;;;;;;4988723;28;20483;-85
2022/10/31 07:17:58;;;;;;;87.70;16.10;;;8.30;99.90;;;;;;4976382;28;20053;-85
2022/10/31 07:20:24;;;;;;;53.83;16.42;;;8.40;99.90;;;;;;4985279;28;20089;-85
2022/10/31 07:22:50;;;;;;;108.65;23.48;;;8.30;99.90;;;;;;4980996;28;20505;-86
2022/10/31 07:25:15;;;;;;;99.55;25.30;;;8.30;99.90;;;;;;4992531;28;20061;-86
2022/10/31 07:27:42;;;;;;;43.67;16.98;;;8.40;99.90;;;;;;4972767;28;20064;-85
2022/10/31 07:30:10;;;;;;;59.28;21.38;;;8.40;99.90;;;;;;4986811;28;20045;-85
2022/10/31 07:32:41;;;;;;;21.55;16.40;;;8.50;99.90;;;;;;4975578;28;20042;-84
2022/10/31 07:35:18;;;;;;;34.13;18.77;;;8.60;99.90;;;;;;4979411;28;20035;-85
2022/10/31 07:37:43;;;;;;;20.25;16.02;;;8.80;99.90;;;;;;4982311;28;20049;-85
2022/10/31 07:40:10;;;;;;;24.83;18.52;;;9.00;99.90;;;;;;4987685;28;20046;-86
2022/10/31 07:42:37;;;;;;;22.33;17.20;;;9.20;99.90;;;;;;4991587;28;20037;-86
2022/10/31 07:45:04;;;;;;;17.38;14.77;;;9.40;99.90;;;;;;4994994;28;20445;-86
2022/10/31 07:47:30;;;;;;;24.73;16.27;;;9.70;99.90;;;;;;4991541;28;20139;-86
2022/10/31 07:49:56;;;;;;;18.63;14.27;;;9.80;99.90;;;;;;5003769;28;20081;-86
2022/10/31 07:52:21;;;;;;;17.88;13.88;;;10.00;99.90;;;;;;4991353;28;20498;-85
2022/10/31 07:54:47;;;;;;;19.60;13.73;;;10.20;99.90;;;;;;4976703;28;20069;-85
2022/10/31 07:57:12;;;;;;;15.70;12.82;;;10.50;99.90;;;;;;4978591;28;20049;-85
2022/10/31 07:59:38;;;;;;;11.65;10.20;;;11.10;99.90;;;;;;5006755;28;20037;-86
2022/10/31 08:02:04;;;;;;;14.63;10.43;;;11.40;99.90;;;;;;4992036;28;20048;-86
2022/10/31 08:04:29;;;;;;;10.90;9.90;;;11.60;99.90;;;;;;4984071;28;20081;-85
2022/10/31 08:06:55;;;;;;;10.05;9.05;;;11.90;99.90;;;;;;4988146;28;20046;-86
2022/10/31 08:09:21;;;;;;;10.70;9.70;;;12.10;99.90;;;;;;4987698;28;20100;-86
2022/10/31 08:11:46;;;;;;;9.88;8.95;;;12.30;99.90;;;;;;4981689;28;20542;-86
2022/10/31 08:14:12;;;;;;;10.38;9.30;;;12.60;99.90;;;;;;4989390;28;20045;-85
2022/10/31 08:16:37;;;;;;;12.13;9.48;;;12.80;99.90;;;;;;4992272;28;20081;-84
2022/10/31 08:19:03;;;;;;;11.35;9.93;;;12.90;99.90;;;;;;4984625;28;20050;-85
2022/10/31 08:21:29;;;;;;;13.00;10.45;;;12.90;99.90;;;;;;4990293;28;20054;-85
2022/10/31 08:23:54;;;;;;;14.25;11.23;;;13.00;99.90;;;;;;4989118;28;20141;-85
2022/10/31 08:26:20;;;;;;;13.13;10.73;;;12.90;99.90;;;;;;4986930;28;20589;-86
2022/10/31 08:28:46;;;;;;;15.20;12.13;;;12.70;99.90;;;;;;5002892;28;20046;-85
2022/10/31 08:31:12;;;;;;;14.27;12.77;;;12.60;99.90;;;;;;4977142;28;20077;-86
2022/10/31 08:33:37;;;;;;;15.80;12.75;;;12.60;99.90;;;;;;4991865;28;20170;-86
2022/10/31 08:36:03;;;;;;;15.55;13.23;;;12.70;99.90;;;;;;4989296;28;20085;-85
2022/10/31 08:38:29;;;;;;;14.45;12.43;;;12.80;99.90;;;;;;4976965;28;20046;-85
2022/10/31 08:40:54;;;;;;;16.60;13.88;;;13.10;99.90;;;;;;4988833;28;20093;-86
2022/10/31 08:43:20;;;;;;;14.68;13.18;;;13.30;99.90;;;;;;4995456;28;20103;-86
2022/10/31 08:45:49;;;;;;;16.33;12.88;;;13.60;99.90;;;;;;4992829;28;20050;-86
2022/10/31 08:48:16;;;;;;;16.38;13.25;;;13.80;99.90;;;;;;4973925;28;20116;-86
2022/10/31 08:50:43;;;;;;;13.70;12.30;;;13.90;99.90;;;;;;4987949;28;20054;-86
2022/10/31 08:53:17;;;;;;;14.98;13.43;;;14.10;99.90;;;;;;4992631;28;20053;-86
2022/10/31 08:55:44;;;;;;;18.83;13.88;;;14.20;99.90;;;;;;5005403;28;20088;-83
2022/10/31 08:58:12;;;;;;;14.45;12.93;;;14.10;99.90;;;;;;4989185;28;20050;-82
2022/10/31 09:00:39;;;;;;;17.48;14.57;;;13.90;99.90;;;;;;4971887;28;20050;-81
2022/10/31 09:03:15;;;;;;;16.45;14.85;;;13.70;99.90;;;;;;4981449;28;20180;-80
2022/10/31 09:05:40;;;;;;;15.45;13.27;;;13.50;99.90;;;;;;5003283;28;20061;-80
2022/10/31 09:08:07;;;;;;;16.00;13.98;;;13.50;99.90;;;;;;4977700;28;20038;-82
2022/10/31 09:10:35;;;;;;;19.92;15.15;;;13.60;99.90;;;;;;4991098;28;20071;-81
2022/10/31 09:13:14;;;;;;;16.00;14.40;;;14.00;99.90;;;;;;4997950;28;20494;-82
2022/10/31 09:15:43;;;;;;;16.10;14.40;;;14.80;99.90;;;;;;4988553;28;20055;-81
2022/10/31 09:18:10;;;;;;;15.75;13.70;;;15.80;99.90;;;;;;4988138;28;20042;-80
2022/10/31 09:20:37;;;;;;;13.80;12.40;;;16.90;99.90;;;;;;4979338;28;20081;-83
2022/10/31 09:23:14;;;;;;;14.48;13.07;;;17.60;99.90;;;;;;4992093;28;20086;-81
2022/10/31 09:25:41;;;;;;;16.35;13.30;;;17.90;99.90;;;;;;4995190;28;20042;-80
2022/10/31 09:28:10;;;;;;;15.13;13.52;;;17.90;99.90;;;;;;4992559;28;20074;-80
2022/10/31 09:30:36;;;;;;;15.15;13.65;;;17.80;99.90;;;;;;4993816;28;20054;-82
2022/10/31 09:33:10;;;;;;;14.65;12.93;;;17.50;99.90;;;;;;4978952;28;20111;-80
2022/10/31 09:35:37;;;;;;;18.02;14.90;;;17.20;99.90;;;;;;4994561;28;20054;-80
2022/10/31 09:38:25;;;;;;;15.40;14.00;;;16.60;99.90;;;;;;4993841;28;20049;-82
2022/10/31 09:41:06;;;;;;;14.43;12.93;;;16.20;99.90;;;;;;4992328;28;20039;-81
2022/10/31 09:44:03;;;;;;;16.45;14.23;;;15.50;99.90;;;;;;5008504;28;20394;-80
2022/10/31 09:46:29;;;;;;;16.83;15.23;;;15.10;99.90;;;;;;4972523;28;20039;-81
2022/10/31 09:49:30;;;;;;;18.63;15.82;;;14.80;99.90;;;;;;5004521;28;20501;-81
2022/10/31 09:52:18;;;;;;;17.02;15.32;;;14.90;99.90;;;;;;4967610;28;20043;-80
2022/10/31 09:54:56;;;;;;;17.23;15.32;;;15.60;99.90;;;;;;5004945;28;20557;-81
2022/10/31 09:57:35;;;;;;;17.27;15.15;;;16.30;99.90;;;;;;4973695;28;20054;-80
2022/10/31 10:00:04;;;;;;;17.42;15.82;;;16.60;99.90;;;;;;4974472;28;20038;-80
2022/10/31 10:02:41;;;;;;;16.90;15.23;;;16.30;99.90;;;;;;4968014;28;20046;-81
2022/10/31 10:05:13;;;;;;;17.75;16.08;;;15.90;99.90;;;;;;4971206;28;20488;-80
2022/10/31 10:08:03;;;;;;;19.25;17.45;;;15.50;99.90;;;;;;5007364;28;20137;-81
2022/10/31 10:10:50;;;;;;;20.15;16.52;;;15.20;99.90;;;;;;5001206;28;20060;-80
2022/10/31 10:13:43;;;;;;;19.35;16.92;;;14.90;99.90;;;;;;4973965;28;20085;-80
2022/10/31 10:16:13;;;;;;;19.30;17.35;;;14.90;99.90;;;;;;4972073;28;20117;-80
2022/10/31 10:18:52;;;;;;;20.80;17.58;;;14.90;99.90;;;;;;5002381;28;20716;-80
2022/10/31 10:21:37;;;;;;;19.40;17.25;;;15.00;99.90;;;;;;4975862;28;20101;-80
2022/10/31 10:24:36;;;;;;;18.27;16.27;;;15.10;99.90;;;;;;4989661;28;20045;-80
2022/10/31 10:27:27;;;;;;;21.75;19.55;;;15.10;99.90;;;;;;5002999;28;20058;-80
2022/10/31 10:30:03;;;;;;;21.88;18.65;;;15.00;99.90;;;;;;4966404;28;20054;-79
2022/10/31 10:32:34;;;;;;;19.27;17.38;;;15.10;99.90;;;;;;4981549;28;20042;-82
2022/10/31 10:35:17;;;;;;;18.85;16.92;;;15.30;99.90;;;;;;4989179;28;20073;-80
2022/10/31 10:37:46;;;;;;;19.45;17.40;;;15.70;99.90;;;;;;5002881;28;20042;-80
2022/10/31 10:40:23;;;;;;;16.27;14.77;;;15.70;99.90;;;;;;5004310;28;20439;-80
2022/10/31 10:48:59;;;;;;;17.42;15.63;;;16.10;99.90;;;;;;4988669;28;20073;-80
2022/10/31 10:51:37;;;;;;;16.23;14.52;;;17.00;99.90;;;;;;4987874;28;20453;-80
2022/10/31 10:54:13;;;;;;;15.80;13.98;;;17.90;99.90;;;;;;4990344;28;20033;-81
2022/10/31 10:57:00;;;;;;;16.00;14.30;;;18.20;99.90;;;;;;4986906;28;20511;-83
2022/10/31 10:59:26;;;;;;;13.02;11.65;;;18.00;99.90;;;;;;4987478;28;20225;-81
2022/10/31 11:01:52;;;;;;;13.70;12.30;;;17.60;99.90;;;;;;4990354;28;20168;-80
2022/10/31 11:04:34;;;;;;;15.68;10.98;;;17.30;99.90;;;;;;5003950;28;20129;-81
2022/10/31 11:07:04;;;;;;;13.68;12.10;;;17.10;99.90;;;;;;4985121;28;20068;-80
2022/10/31 11:09:30;;;;;;;13.13;11.55;;;16.80;99.90;;;;;;4985137;28;20127;-80
2022/10/31 11:11:57;;;;;;;13.05;11.20;;;16.70;99.90;;;;;;4985192;28;20085;-80
2022/10/31 11:14:24;;;;;;;14.18;11.82;;;16.70;99.90;;;;;;4989362;28;20042;-80
2022/10/31 11:17:06;;;;;;;13.50;12.10;;;16.50;99.90;;;;;;4984031;28;20049;-81
2022/10/31 11:19:32;;;;;;;13.48;11.20;;;16.40;99.90;;;;;;4977948;28;20060;-80
2022/10/31 11:22:15;;;;;;;12.85;11.35;;;16.30;99.90;;;;;;4989168;28;20049;-82
2022/10/31 11:24:42;;;;;;;15.10;11.88;;;16.20;99.90;;;;;;4976242;28;20073;-83
2022/10/31 11:27:21;;;;;;;12.82;11.38;;;16.00;99.90;;;;;;5005664;28;20050;-79
2022/10/31 11:29:48;;;;;;;13.95;11.85;;;16.00;99.90;;;;;;4991929;28;20366;-80
2022/10/31 11:32:22;;;;;;;13.00;10.90;;;15.90;99.90;;;;;;4989039;28;20030;-81
2022/10/31 11:34:57;;;;;;;14.32;11.70;;;15.90;99.90;;;;;;4990529;28;20129;-80
2022/10/31 11:37:30;;;;;;;14.05;12.50;;;15.80;99.90;;;;;;4993207;28;20042;-80
2022/10/31 11:40:01;;;;;;;13.45;10.88;;;15.80;99.90;;;;;;4985567;28;20056;-80
2022/10/31 11:42:34;;;;;;;16.58;12.27;;;15.80;99.90;;;;;;4973199;28;20545;-82
2022/10/31 11:45:02;;;;;;;13.20;11.80;;;15.70;99.90;;;;;;4989134;28;20049;-80
2022/10/31 11:47:32;;;;;;;13.90;12.38;;;15.70;99.90;;;;;;4982029;28;20111;-81
2022/10/31 11:50:02;;;;;;;13.45;11.80;;;15.70;99.90;;;;;;4994025;28;20121;-80
2022/10/31 11:52:31;;;;;;;13.82;12.00;;;15.70;99.90;;;;;;4967478;28;20050;-80
2022/10/31 11:55:12;;;;;;;15.77;12.25;;;15.70;99.90;;;;;;5018214;28;20058;-80
2022/10/31 11:57:51;;;;;;;16.30;11.70;;;15.80;99.90;;;;;;4993671;28;20058;-80
2022/10/31 12:00:22;;;;;;;15.80;12.05;;;15.90;99.90;;;;;;4995811;28;20562;-80
2022/10/31 12:02:48;;;;;;;15.82;11.00;;;16.00;99.90;;;;;;4991164;28;20050;-81
2022/10/31 12:05:19;;;;;;;14.25;10.77;;;16.00;99.90;;;;;;4981650;28;20054;-81
2022/10/31 12:07:45;;;;;;;14.70;10.63;;;16.00;99.90;;;;;;4977547;28;20058;-80
2022/10/31 12:10:12;;;;;;;12.23;9.85;;;16.10;99.90;;;;;;5001311;28;20093;-81
2022/10/31 12:12:46;;;;;;;13.05;9.77;;;16.00;99.90;;;;;;4966653;28;20104;-80
2022/10/31 12:15:20;;;;;;;14.45;9.82;;;16.00;99.90;;;;;;4983890;28;20043;-80
2022/10/31 12:17:55;;;;;;;11.98;9.30;;;16.10;99.90;;;;;;4972246;28;20049;-80
2022/10/31 12:20:32;;;;;;;12.63;9.43;;;16.10;99.90;;;;;;4991860;28;20054;-80
2022/10/31 12:23:31;;;;;;;12.95;10.60;;;16.00;99.90;;;;;;4967311;28;20050;-80
2022/10/31 12:26:21;;;;;;;10.60;8.15;;;16.00;99.90;;;;;;4990111;28;20129;-82
2022/10/31 12:28:59;;;;;;;15.50;9.32;;;16.00;99.90;;;;;;4988412;28;20049;-81
2022/10/31 12:31:41;;;;;;;16.13;9.73;;;15.80;99.90;;;;;;4987775;28;20046;-81
2022/10/31 12:34:44;;;;;;;13.70;9.85;;;15.90;99.90;;;;;;4998659;28;20074;-81
2022/10/31 12:37:32;;;;;;;12.50;9.20;;;15.90;99.90;;;;;;5019894;28;20494;-81
2022/10/31 12:40:18;;;;;;;13.60;9.15;;;15.90;99.90;;;;;;4994149;28;20058;-81
2022/10/31 12:42:56;;;;;;;11.70;8.35;;;15.80;99.90;;;;;;4993617;28;20345;-81
2022/10/31 12:45:49;;;;;;;16.40;9.13;;;15.80;99.90;;;;;;5001986;28;20518;-81
2022/10/31 12:48:30;;;;;;;13.23;9.27;;;15.80;99.90;;;;;;4984579;28;20078;-82
2022/10/31 12:51:03;;;;;;;14.32;9.27;;;15.70;99.90;;;;;;4991155;28;20057;-82
2022/10/31 12:53:54;;;;;;;15.52;9.40;;;15.60;99.90;;;;;;4987154;28;20042;-82
2022/10/31 12:56:53;;;;;;;14.32;9.98;;;15.70;99.90;;;;;;4984834;28;20047;-82